sensor_id;sensor_type;location;lat;lon;timestamp;pressure;altitude;pressure_sealevel;temperature;humidity
77855;BME280;67046;50.088;14.336;2023-02-01T00:00:09;97458.61;;;3.86;72.64
77855;BME280;67046;50.088;14.336;2023-02-01T00:00:49;97462.54;;;3.85;72.64
77855;BME280;67046;50.088;14.336;2023-02-01T00:01:30;97456.27;;;3.84;72.57
77855;BME280;67046;50.088;14.336;2023-02-01T00:02:02;97462.80;;;3.82;72.79
77855;BME280;67046;50.088;14.336;2023-02-01T00:02:35;97463.52;;;3.82;72.58
77855;BME280;67046;50.088;14.336;2023-02-01T00:03:11;97466.84;;;3.81;72.72
77855;BME280;67046;50.088;14.336;2023-02-01T00:03:44;97462.53;;;3.80;72.80
77855;BME280;67046;50.088;14.336;2023-02-01T00:04:16;97464.02;;;3.81;72.72
77855;BME280;67046;50.088;14.336;2023-02-01T00:04:48;97465.43;;;3.81;72.68
77855;BME280;67046;50.088;14.336;2023-02-01T00:05:20;97461.44;;;3.82;72.60
77855;BME280;67046;50.088;14.336;2023-02-01T00:05:56;97470.65;;;3.82;72.57
77855;BME280;67046;50.088;14.336;2023-02-01T00:06:29;97459.77;;;3.83;72.55
77855;BME280;67046;50.088;14.336;2023-02-01T00:07:01;97469.41;;;3.82;72.56
77855;BME280;67046;50.088;14.336;2023-02-01T00:07:33;97469.58;;;3.81;72.58
77855;BME280;67046;50.088;14.336;2023-02-01T00:08:05;97464.21;;;3.82;72.53
77855;BME280;67046;50.088;14.336;2023-02-01T00:08:37;97464.05;;;3.82;72.56
77855;BME280;67046;50.088;14.336;2023-02-01T00:09:09;97465.23;;;3.81;72.37
77855;BME280;67046;50.088;14.336;2023-02-01T00:09:41;97467.88;;;3.80;72.57
77855;BME280;67046;50.088;14.336;2023-02-01T00:10:13;97477.89;;;3.80;72.59
77855;BME280;67046;50.088;14.336;2023-02-01T00:10:44;97465.02;;;3.80;72.64
77855;BME280;67046;50.088;14.336;2023-02-01T00:11:17;97471.77;;;3.80;72.68
77855;BME280;67046;50.088;14.336;2023-02-01T00:11:49;97475.96;;;3.80;72.55
77855;BME280;67046;50.088;14.336;2023-02-01T00:12:21;97476.55;;;3.79;72.67
77855;BME280;67046;50.088;14.336;2023-02-01T00:12:52;97472.81;;;3.80;72.70
77855;BME280;67046;50.088;14.336;2023-02-01T00:13:24;97474.16;;;3.81;72.66
77855;BME280;67046;50.088;14.336;2023-02-01T00:13:57;97475.95;;;3.80;72.70
77855;BME280;67046;50.088;14.336;2023-02-01T00:14:29;97474.75;;;3.80;72.62
77855;BME280;67046;50.088;14.336;2023-02-01T00:15:01;97476.12;;;3.79;72.80
77855;BME280;67046;50.088;14.336;2023-02-01T00:15:33;97472.86;;;3.78;72.51
77855;BME280;67046;50.088;14.336;2023-02-01T00:16:13;97480.18;;;3.79;72.74
77855;BME280;67046;50.088;14.336;2023-02-01T00:16:47;97466.27;;;3.78;72.70
77855;BME280;67046;50.088;14.336;2023-02-01T00:17:19;97468.56;;;3.78;72.61
77855;BME280;67046;50.088;14.336;2023-02-01T00:17:55;97459.60;;;3.79;72.68
77855;BME280;67046;50.088;14.336;2023-02-01T00:18:26;97461.52;;;3.80;72.71
77855;BME280;67046;50.088;14.336;2023-02-01T00:19:04;97465.17;;;3.80;72.72
77855;BME280;67046;50.088;14.336;2023-02-01T00:19:36;97463.73;;;3.79;72.72
77855;BME280;67046;50.088;14.336;2023-02-01T00:20:09;97470.13;;;3.78;72.82
77855;BME280;67046;50.088;14.336;2023-02-01T00:20:45;97471.93;;;3.78;72.75
77855;BME280;67046;50.088;14.336;2023-02-01T00:21:20;97461.11;;;3.78;72.55
77855;BME280;67046;50.088;14.336;2023-02-01T00:21:52;97456.41;;;3.78;72.96
77855;BME280;67046;50.088;14.336;2023-02-01T00:22:24;97465.17;;;3.77;72.92
77855;BME280;67046;50.088;14.336;2023-02-01T00:22:56;97460.34;;;3.77;72.79
77855;BME280;67046;50.088;14.336;2023-02-01T00:23:30;97465.57;;;3.77;72.75
77855;BME280;67046;50.088;14.336;2023-02-01T00:24:03;97459.42;;;3.77;72.90
77855;BME280;67046;50.088;14.336;2023-02-01T00:24:36;97464.09;;;3.76;72.82
77855;BME280;67046;50.088;14.336;2023-02-01T00:25:07;97462.43;;;3.77;72.91
77855;BME280;67046;50.088;14.336;2023-02-01T00:25:39;97468.15;;;3.76;73.01
77855;BME280;67046;50.088;14.336;2023-02-01T00:26:18;97460.88;;;3.76;73.02
77855;BME280;67046;50.088;14.336;2023-02-01T00:26:50;97468.31;;;3.76;73.12
77855;BME280;67046;50.088;14.336;2023-02-01T00:27:22;97470.16;;;3.75;73.13
77855;BME280;67046;50.088;14.336;2023-02-01T00:27:54;97472.02;;;3.76;73.09
77855;BME280;67046;50.088;14.336;2023-02-01T00:28:28;97467.02;;;3.76;73.08
77855;BME280;67046;50.088;14.336;2023-02-01T00:29:03;97472.69;;;3.76;73.26
77855;BME280;67046;50.088;14.336;2023-02-01T00:29:35;97472.05;;;3.77;73.21
77855;BME280;67046;50.088;14.336;2023-02-01T00:30:08;97476.43;;;3.76;73.41
77855;BME280;67046;50.088;14.336;2023-02-01T00:30:40;97474.22;;;3.77;73.16
77855;BME280;67046;50.088;14.336;2023-02-01T00:31:12;97476.40;;;3.78;73.32
77855;BME280;67046;50.088;14.336;2023-02-01T00:31:45;97476.33;;;3.79;73.45
77855;BME280;67046;50.088;14.336;2023-02-01T00:32:17;97476.67;;;3.80;73.34
77855;BME280;67046;50.088;14.336;2023-02-01T00:32:49;97477.21;;;3.80;73.37
77855;BME280;67046;50.088;14.336;2023-02-01T00:33:21;97474.98;;;3.81;73.47
77855;BME280;67046;50.088;14.336;2023-02-01T00:33:53;97479.38;;;3.81;73.49
77855;BME280;67046;50.088;14.336;2023-02-01T00:34:25;97480.34;;;3.80;73.65
77855;BME280;67046;50.088;14.336;2023-02-01T00:34:57;97475.31;;;3.80;73.65
77855;BME280;67046;50.088;14.336;2023-02-01T00:35:29;97467.10;;;3.78;73.64
77855;BME280;67046;50.088;14.336;2023-02-01T00:36:04;97468.72;;;3.78;73.72
77855;BME280;67046;50.088;14.336;2023-02-01T00:36:37;97460.39;;;3.78;73.67
77855;BME280;67046;50.088;14.336;2023-02-01T00:37:09;97468.34;;;3.77;73.72
77855;BME280;67046;50.088;14.336;2023-02-01T00:37:41;97454.23;;;3.77;73.98
77855;BME280;67046;50.088;14.336;2023-02-01T00:38:13;97469.75;;;3.75;73.79
77855;BME280;67046;50.088;14.336;2023-02-01T00:38:45;97475.98;;;3.75;73.98
77855;BME280;67046;50.088;14.336;2023-02-01T00:39:17;97483.79;;;3.74;73.94
77855;BME280;67046;50.088;14.336;2023-02-01T00:39:49;97476.25;;;3.72;73.97
77855;BME280;67046;50.088;14.336;2023-02-01T00:40:22;97477.66;;;3.72;74.26
77855;BME280;67046;50.088;14.336;2023-02-01T00:40:54;97478.84;;;3.73;74.15
77855;BME280;67046;50.088;14.336;2023-02-01T00:41:26;97481.29;;;3.73;74.50
77855;BME280;67046;50.088;14.336;2023-02-01T00:42:00;97475.48;;;3.70;74.50
77855;BME280;67046;50.088;14.336;2023-02-01T00:42:33;97476.77;;;3.70;74.45
77855;BME280;67046;50.088;14.336;2023-02-01T00:43:04;97482.16;;;3.70;74.58
77855;BME280;67046;50.088;14.336;2023-02-01T00:43:36;97479.58;;;3.71;74.60
77855;BME280;67046;50.088;14.336;2023-02-01T00:44:09;97490.32;;;3.71;74.56
77855;BME280;67046;50.088;14.336;2023-02-01T00:44:41;97484.25;;;3.71;74.50
77855;BME280;67046;50.088;14.336;2023-02-01T00:45:13;97487.39;;;3.69;74.74
77855;BME280;67046;50.088;14.336;2023-02-01T00:45:45;97479.34;;;3.69;74.71
77855;BME280;67046;50.088;14.336;2023-02-01T00:46:19;97473.23;;;3.69;74.83
77855;BME280;67046;50.088;14.336;2023-02-01T00:46:51;97469.98;;;3.70;74.80
77855;BME280;67046;50.088;14.336;2023-02-01T00:47:23;97460.27;;;3.71;74.92
77855;BME280;67046;50.088;14.336;2023-02-01T00:47:55;97477.49;;;3.71;74.63
77855;BME280;67046;50.088;14.336;2023-02-01T00:48:28;97476.00;;;3.70;74.87
77855;BME280;67046;50.088;14.336;2023-02-01T00:49:00;97473.71;;;3.71;74.74
77855;BME280;67046;50.088;14.336;2023-02-01T00:49:32;97474.66;;;3.71;74.71
77855;BME280;67046;50.088;14.336;2023-02-01T00:50:04;97480.00;;;3.72;74.79
77855;BME280;67046;50.088;14.336;2023-02-01T00:50:41;97469.79;;;3.73;74.73
77855;BME280;67046;50.088;14.336;2023-02-01T00:51:16;97476.39;;;3.71;74.78
77855;BME280;67046;50.088;14.336;2023-02-01T00:51:48;97475.16;;;3.72;74.87
77855;BME280;67046;50.088;14.336;2023-02-01T00:52:20;97474.83;;;3.71;74.79
77855;BME280;67046;50.088;14.336;2023-02-01T00:52:52;97477.89;;;3.71;74.85
77855;BME280;67046;50.088;14.336;2023-02-01T00:53:24;97464.18;;;3.72;74.86
77855;BME280;67046;50.088;14.336;2023-02-01T00:53:56;97470.19;;;3.72;74.80
77855;BME280;67046;50.088;14.336;2023-02-01T00:54:29;97467.34;;;3.73;75.09
77855;BME280;67046;50.088;14.336;2023-02-01T00:55:01;97467.42;;;3.73;74.88
77855;BME280;67046;50.088;14.336;2023-02-01T00:55:33;97472.11;;;3.74;74.83
77855;BME280;67046;50.088;14.336;2023-02-01T00:56:06;97473.19;;;3.72;74.80
77855;BME280;67046;50.088;14.336;2023-02-01T00:56:38;97472.22;;;3.71;74.83
77855;BME280;67046;50.088;14.336;2023-02-01T00:57:10;97468.88;;;3.72;74.94
77855;BME280;67046;50.088;14.336;2023-02-01T00:57:42;97471.06;;;3.71;74.84
77855;BME280;67046;50.088;14.336;2023-02-01T00:58:14;97475.12;;;3.72;74.98
77855;BME280;67046;50.088;14.336;2023-02-01T00:58:47;97468.42;;;3.72;74.69
77855;BME280;67046;50.088;14.336;2023-02-01T00:59:19;97468.29;;;3.72;74.89
77855;BME280;67046;50.088;14.336;2023-02-01T00:59:51;97473.23;;;3.73;74.84
77855;BME280;67046;50.088;14.336;2023-02-01T01:00:23;97474.14;;;3.73;74.74
77855;BME280;67046;50.088;14.336;2023-02-01T01:01:38;97479.00;;;3.73;74.83
77855;BME280;67046;50.088;14.336;2023-02-01T01:02:10;97481.89;;;3.73;74.81
77855;BME280;67046;50.088;14.336;2023-02-01T01:02:44;97475.21;;;3.74;74.59
77855;BME280;67046;50.088;14.336;2023-02-01T01:03:16;97484.98;;;3.73;74.83
77855;BME280;67046;50.088;14.336;2023-02-01T01:03:55;97479.43;;;3.74;74.68
77855;BME280;67046;50.088;14.336;2023-02-01T01:04:27;97483.58;;;3.74;74.71
77855;BME280;67046;50.088;14.336;2023-02-01T01:04:59;97475.02;;;3.74;74.80
77855;BME280;67046;50.088;14.336;2023-02-01T01:05:31;97483.17;;;3.74;74.67
77855;BME280;67046;50.088;14.336;2023-02-01T01:06:06;97479.08;;;3.76;74.58
77855;BME280;67046;50.088;14.336;2023-02-01T01:06:39;97477.79;;;3.77;74.51
77855;BME280;67046;50.088;14.336;2023-02-01T01:07:11;97481.58;;;3.77;74.44
77855;BME280;67046;50.088;14.336;2023-02-01T01:07:43;97479.70;;;3.78;74.60
77855;BME280;67046;50.088;14.336;2023-02-01T01:08:16;97476.08;;;3.79;74.59
77855;BME280;67046;50.088;14.336;2023-02-01T01:08:51;97476.96;;;3.80;74.60
77855;BME280;67046;50.088;14.336;2023-02-01T01:09:23;97480.39;;;3.81;74.35
77855;BME280;67046;50.088;14.336;2023-02-01T01:09:55;97477.97;;;3.82;74.37
77855;BME280;67046;50.088;14.336;2023-02-01T01:10:27;97481.92;;;3.82;74.40
77855;BME280;67046;50.088;14.336;2023-02-01T01:11:39;97483.67;;;3.82;74.38
77855;BME280;67046;50.088;14.336;2023-02-01T01:12:11;97475.02;;;3.83;74.44
77855;BME280;67046;50.088;14.336;2023-02-01T01:12:43;97469.10;;;3.83;74.42
77855;BME280;67046;50.088;14.336;2023-02-01T01:13:15;97475.25;;;3.83;74.38
77855;BME280;67046;50.088;14.336;2023-02-01T01:13:49;97477.02;;;3.83;74.33
77855;BME280;67046;50.088;14.336;2023-02-01T01:14:21;97487.42;;;3.82;74.30
77855;BME280;67046;50.088;14.336;2023-02-01T01:14:53;97481.35;;;3.82;74.32
77855;BME280;67046;50.088;14.336;2023-02-01T01:15:25;97475.85;;;3.81;74.18
77855;BME280;67046;50.088;14.336;2023-02-01T01:16:00;97479.30;;;3.81;74.16
77855;BME280;67046;50.088;14.336;2023-02-01T01:16:34;97474.59;;;3.81;74.07
77855;BME280;67046;50.088;14.336;2023-02-01T01:17:06;97475.77;;;3.82;74.08
77855;BME280;67046;50.088;14.336;2023-02-01T01:17:37;97484.33;;;3.81;74.04
77855;BME280;67046;50.088;14.336;2023-02-01T01:18:09;97483.09;;;3.81;73.91
77855;BME280;67046;50.088;14.336;2023-02-01T01:18:42;97476.60;;;3.82;74.05
77855;BME280;67046;50.088;14.336;2023-02-01T01:19:14;97477.02;;;3.82;73.92
77855;BME280;67046;50.088;14.336;2023-02-01T01:19:46;97484.33;;;3.83;73.94
77855;BME280;67046;50.088;14.336;2023-02-01T01:20:18;97483.67;;;3.82;74.09
77855;BME280;67046;50.088;14.336;2023-02-01T01:20:53;97479.16;;;3.84;73.96
77855;BME280;67046;50.088;14.336;2023-02-01T01:21:26;97482.26;;;3.84;74.14
77855;BME280;67046;50.088;14.336;2023-02-01T01:21:57;97478.04;;;3.84;73.87
77855;BME280;67046;50.088;14.336;2023-02-01T01:22:29;97479.56;;;3.85;73.80
77855;BME280;67046;50.088;14.336;2023-02-01T01:23:02;97474.29;;;3.85;74.15
77855;BME280;67046;50.088;14.336;2023-02-01T01:23:35;97479.56;;;3.86;73.95
77855;BME280;67046;50.088;14.336;2023-02-01T01:24:07;97483.61;;;3.86;73.60
77855;BME280;67046;50.088;14.336;2023-02-01T01:24:39;97482.87;;;3.86;73.73
77855;BME280;67046;50.088;14.336;2023-02-01T01:25:11;97482.27;;;3.86;73.74
77855;BME280;67046;50.088;14.336;2023-02-01T01:25:43;97476.80;;;3.86;73.72
77855;BME280;67046;50.088;14.336;2023-02-01T01:26:28;97489.25;;;3.85;73.66
77855;BME280;67046;50.088;14.336;2023-02-01T01:27:00;97484.10;;;3.84;73.51
77855;BME280;67046;50.088;14.336;2023-02-01T01:27:32;97476.18;;;3.84;73.61
77855;BME280;67046;50.088;14.336;2023-02-01T01:28:05;97483.02;;;3.83;73.67
77855;BME280;67046;50.088;14.336;2023-02-01T01:28:37;97476.42;;;3.83;73.57
77855;BME280;67046;50.088;14.336;2023-02-01T01:29:09;97472.27;;;3.83;73.62
77855;BME280;67046;50.088;14.336;2023-02-01T01:29:42;97482.45;;;3.83;73.62
77855;BME280;67046;50.088;14.336;2023-02-01T01:30:14;97480.67;;;3.83;73.56
77855;BME280;67046;50.088;14.336;2023-02-01T01:30:46;97474.36;;;3.83;73.47
77855;BME280;67046;50.088;14.336;2023-02-01T01:31:19;97472.58;;;3.80;73.45
77855;BME280;67046;50.088;14.336;2023-02-01T01:31:52;97470.17;;;3.79;73.43
77855;BME280;67046;50.088;14.336;2023-02-01T01:32:24;97468.08;;;3.80;73.58
77855;BME280;67046;50.088;14.336;2023-02-01T01:32:56;97473.34;;;3.81;73.48
77855;BME280;67046;50.088;14.336;2023-02-01T01:33:27;97471.86;;;3.82;73.42
77855;BME280;67046;50.088;14.336;2023-02-01T01:33:59;97471.66;;;3.82;73.50
77855;BME280;67046;50.088;14.336;2023-02-01T01:34:31;97470.25;;;3.82;73.52
77855;BME280;67046;50.088;14.336;2023-02-01T01:35:04;97477.50;;;3.83;73.27
77855;BME280;67046;50.088;14.336;2023-02-01T01:35:35;97473.11;;;3.83;72.97
77855;BME280;67046;50.088;14.336;2023-02-01T01:36:09;97471.63;;;3.81;73.18
77855;BME280;67046;50.088;14.336;2023-02-01T01:36:44;97480.63;;;3.80;73.21
77855;BME280;67046;50.088;14.336;2023-02-01T01:37:16;97476.25;;;3.81;73.16
77855;BME280;67046;50.088;14.336;2023-02-01T01:37:48;97471.99;;;3.81;73.19
77855;BME280;67046;50.088;14.336;2023-02-01T01:38:19;97477.09;;;3.82;73.15
77855;BME280;67046;50.088;14.336;2023-02-01T01:38:52;97472.86;;;3.82;73.00
77855;BME280;67046;50.088;14.336;2023-02-01T01:39:24;97470.02;;;3.83;72.93
77855;BME280;67046;50.088;14.336;2023-02-01T01:39:56;97482.20;;;3.82;72.69
77855;BME280;67046;50.088;14.336;2023-02-01T01:40:29;97477.61;;;3.82;72.61
77855;BME280;67046;50.088;14.336;2023-02-01T01:41:01;97476.86;;;3.83;72.72
77855;BME280;67046;50.088;14.336;2023-02-01T01:41:33;97478.10;;;3.82;72.58
77855;BME280;67046;50.088;14.336;2023-02-01T01:42:10;97480.22;;;3.81;72.60
77855;BME280;67046;50.088;14.336;2023-02-01T01:42:44;97476.73;;;3.81;72.57
77855;BME280;67046;50.088;14.336;2023-02-01T01:43:18;97482.24;;;3.81;72.60
77855;BME280;67046;50.088;14.336;2023-02-01T01:43:58;97480.88;;;3.81;72.63
77855;BME280;67046;50.088;14.336;2023-02-01T01:45:06;97488.27;;;3.82;72.69
77855;BME280;67046;50.088;14.336;2023-02-01T01:45:38;97473.27;;;3.81;72.30
77855;BME280;67046;50.088;14.336;2023-02-01T01:46:10;97472.36;;;3.81;72.46
77855;BME280;67046;50.088;14.336;2023-02-01T01:46:42;97474.39;;;3.81;72.45
77855;BME280;67046;50.088;14.336;2023-02-01T01:47:14;97478.02;;;3.83;72.31
77855;BME280;67046;50.088;14.336;2023-02-01T01:48:16;97487.35;;;3.83;72.16
77855;BME280;67046;50.088;14.336;2023-02-01T01:48:53;97481.71;;;3.82;71.99
77855;BME280;67046;50.088;14.336;2023-02-01T01:49:26;97479.82;;;3.83;71.93
77855;BME280;67046;50.088;14.336;2023-02-01T01:49:58;97481.13;;;3.83;72.21
77855;BME280;67046;50.088;14.336;2023-02-01T01:50:35;97480.04;;;3.85;72.10
77855;BME280;67046;50.088;14.336;2023-02-01T01:51:10;97478.84;;;3.86;72.16
77855;BME280;67046;50.088;14.336;2023-02-01T01:51:51;97482.23;;;3.87;72.11
77855;BME280;67046;50.088;14.336;2023-02-01T01:52:24;97483.99;;;3.87;71.82
77855;BME280;67046;50.088;14.336;2023-02-01T01:52:58;97478.73;;;3.87;71.86
77855;BME280;67046;50.088;14.336;2023-02-01T01:53:46;97482.35;;;3.87;71.80
77855;BME280;67046;50.088;14.336;2023-02-01T01:54:29;97474.82;;;3.88;71.74
77855;BME280;67046;50.088;14.336;2023-02-01T01:55:02;97473.37;;;3.86;71.56
77855;BME280;67046;50.088;14.336;2023-02-01T01:55:38;97472.69;;;3.87;71.47
77855;BME280;67046;50.088;14.336;2023-02-01T01:56:13;97481.49;;;3.86;71.67
77855;BME280;67046;50.088;14.336;2023-02-01T01:56:49;97479.00;;;3.86;71.42
77855;BME280;67046;50.088;14.336;2023-02-01T01:57:33;97474.38;;;3.87;71.43
77855;BME280;67046;50.088;14.336;2023-02-01T01:58:11;97475.42;;;3.87;71.41
77855;BME280;67046;50.088;14.336;2023-02-01T01:58:44;97481.09;;;3.88;71.44
77855;BME280;67046;50.088;14.336;2023-02-01T01:59:16;97483.27;;;3.88;71.51
77855;BME280;67046;50.088;14.336;2023-02-01T01:59:54;97480.18;;;3.89;71.54
77855;BME280;67046;50.088;14.336;2023-02-01T02:00:27;97475.84;;;3.89;71.28
77855;BME280;67046;50.088;14.336;2023-02-01T02:00:59;97484.77;;;3.90;71.28
77855;BME280;67046;50.088;14.336;2023-02-01T02:01:31;97482.98;;;3.90;70.84
77855;BME280;67046;50.088;14.336;2023-02-01T02:02:04;97488.34;;;3.91;70.94
77855;BME280;67046;50.088;14.336;2023-02-01T02:02:37;97476.65;;;3.92;70.87
77855;BME280;67046;50.088;14.336;2023-02-01T02:03:14;97479.98;;;3.93;70.75
77855;BME280;67046;50.088;14.336;2023-02-01T02:03:50;97481.04;;;3.95;70.72
77855;BME280;67046;50.088;14.336;2023-02-01T02:04:24;97476.40;;;3.94;70.70
77855;BME280;67046;50.088;14.336;2023-02-01T02:04:57;97475.85;;;3.95;70.67
77855;BME280;67046;50.088;14.336;2023-02-01T02:05:29;97480.40;;;3.97;70.69
77855;BME280;67046;50.088;14.336;2023-02-01T02:06:04;97476.73;;;3.97;70.67
77855;BME280;67046;50.088;14.336;2023-02-01T02:07:00;97471.63;;;3.97;70.52
77855;BME280;67046;50.088;14.336;2023-02-01T02:07:40;97478.83;;;3.95;70.54
77855;BME280;67046;50.088;14.336;2023-02-01T02:08:13;97468.01;;;3.94;70.37
77855;BME280;67046;50.088;14.336;2023-02-01T02:08:45;97477.21;;;3.94;70.60
77855;BME280;67046;50.088;14.336;2023-02-01T02:09:17;97477.85;;;3.92;70.74
77855;BME280;67046;50.088;14.336;2023-02-01T02:09:49;97484.68;;;3.91;70.49
77855;BME280;67046;50.088;14.336;2023-02-01T02:10:22;97474.95;;;3.91;69.94
77855;BME280;67046;50.088;14.336;2023-02-01T02:11:16;97477.40;;;3.89;70.29
77855;BME280;67046;50.088;14.336;2023-02-01T02:11:48;97482.70;;;3.88;70.13
77855;BME280;67046;50.088;14.336;2023-02-01T02:12:20;97476.95;;;3.88;70.37
77855;BME280;67046;50.088;14.336;2023-02-01T02:12:52;97474.98;;;3.89;70.09
77855;BME280;67046;50.088;14.336;2023-02-01T02:13:26;97479.69;;;3.89;70.10
77855;BME280;67046;50.088;14.336;2023-02-01T02:14:00;97477.89;;;3.89;69.96
77855;BME280;67046;50.088;14.336;2023-02-01T02:14:33;97472.89;;;3.89;69.78
77855;BME280;67046;50.088;14.336;2023-02-01T02:15:07;97474.02;;;3.90;69.81
77855;BME280;67046;50.088;14.336;2023-02-01T02:15:45;97471.98;;;3.89;69.90
77855;BME280;67046;50.088;14.336;2023-02-01T02:16:32;97475.15;;;3.89;69.21
77855;BME280;67046;50.088;14.336;2023-02-01T02:18:02;97474.46;;;3.85;69.35
77855;BME280;67046;50.088;14.336;2023-02-01T02:18:52;97478.22;;;3.85;69.51
77855;BME280;67046;50.088;14.336;2023-02-01T02:22:32;97481.41;;;3.84;68.61
77855;BME280;67046;50.088;14.336;2023-02-01T02:24:05;97488.64;;;3.80;68.28
77855;BME280;67046;50.088;14.336;2023-02-01T02:25:01;97487.25;;;3.80;68.37
77855;BME280;67046;50.088;14.336;2023-02-01T02:26:51;97483.91;;;3.79;67.83
77855;BME280;67046;50.088;14.336;2023-02-01T02:29:10;97491.71;;;3.79;67.37
77855;BME280;67046;50.088;14.336;2023-02-01T02:29:35;97492.92;;;3.79;67.40
77855;BME280;67046;50.088;14.336;2023-02-01T02:33:22;97495.58;;;3.82;67.09
77855;BME280;67046;50.088;14.336;2023-02-01T02:34:05;97501.79;;;3.83;67.16
77855;BME280;67046;50.088;14.336;2023-02-01T02:34:46;97503.92;;;3.83;67.13
77855;BME280;67046;50.088;14.336;2023-02-01T02:38:22;97504.16;;;3.87;67.59
77855;BME280;67046;50.088;14.336;2023-02-01T02:40:49;97500.61;;;3.90;67.41
77855;BME280;67046;50.088;14.336;2023-02-01T02:43:21;97509.05;;;3.91;67.33
77855;BME280;67046;50.088;14.336;2023-02-01T02:44:21;97501.30;;;3.91;67.65
77855;BME280;67046;50.088;14.336;2023-02-01T02:45:17;97513.80;;;3.91;67.71
77855;BME280;67046;50.088;14.336;2023-02-01T02:46:22;97510.70;;;3.90;67.90
77855;BME280;67046;50.088;14.336;2023-02-01T02:47:31;97507.41;;;3.89;67.75
77855;BME280;67046;50.088;14.336;2023-02-01T02:48:28;97505.84;;;3.89;68.18
77855;BME280;67046;50.088;14.336;2023-02-01T02:49:19;97496.59;;;3.89;68.07
77855;BME280;67046;50.088;14.336;2023-02-01T02:50:05;97495.45;;;3.88;68.26
77855;BME280;67046;50.088;14.336;2023-02-01T02:51:05;97497.42;;;3.88;68.51
77855;BME280;67046;50.088;14.336;2023-02-01T02:52:02;97493.33;;;3.87;68.57
77855;BME280;67046;50.088;14.336;2023-02-01T02:53:03;97496.91;;;3.87;68.66
77855;BME280;67046;50.088;14.336;2023-02-01T02:54:58;97497.42;;;3.87;68.82
77855;BME280;67046;50.088;14.336;2023-02-01T02:55:33;97491.08;;;3.87;69.03
77855;BME280;67046;50.088;14.336;2023-02-01T02:56:09;97494.46;;;3.89;68.96
77855;BME280;67046;50.088;14.336;2023-02-01T02:57:04;97485.16;;;3.91;69.22
77855;BME280;67046;50.088;14.336;2023-02-01T02:57:58;97491.46;;;3.91;69.23
77855;BME280;67046;50.088;14.336;2023-02-01T02:58:48;97491.09;;;3.91;69.47
77855;BME280;67046;50.088;14.336;2023-02-01T02:59:39;97497.08;;;3.90;69.37
77855;BME280;67046;50.088;14.336;2023-02-01T03:00:33;97493.26;;;3.89;69.47
77855;BME280;67046;50.088;14.336;2023-02-01T03:01:24;97489.05;;;3.88;69.54
77855;BME280;67046;50.088;14.336;2023-02-01T03:02:15;97489.83;;;3.87;69.70
77855;BME280;67046;50.088;14.336;2023-02-01T03:03:07;97488.47;;;3.87;69.75
77855;BME280;67046;50.088;14.336;2023-02-01T03:03:57;97484.88;;;3.86;69.98
77855;BME280;67046;50.088;14.336;2023-02-01T03:04:42;97484.95;;;3.86;69.92
77855;BME280;67046;50.088;14.336;2023-02-01T03:05:13;97475.64;;;3.85;70.12
77855;BME280;67046;50.088;14.336;2023-02-01T03:05:49;97474.94;;;3.84;70.07
77855;BME280;67046;50.088;14.336;2023-02-01T03:06:24;97483.29;;;3.83;70.24
77855;BME280;67046;50.088;14.336;2023-02-01T03:06:56;97482.08;;;3.83;70.28
77855;BME280;67046;50.088;14.336;2023-02-01T03:08:22;97483.64;;;3.83;70.40
77855;BME280;67046;50.088;14.336;2023-02-01T03:08:56;97484.28;;;3.82;70.55
77855;BME280;67046;50.088;14.336;2023-02-01T03:09:32;97484.50;;;3.83;70.66
77855;BME280;67046;50.088;14.336;2023-02-01T03:10:09;97477.46;;;3.83;70.50
77855;BME280;67046;50.088;14.336;2023-02-01T03:10:54;97479.11;;;3.84;70.71
77855;BME280;67046;50.088;14.336;2023-02-01T03:11:30;97481.57;;;3.85;70.80
77855;BME280;67046;50.088;14.336;2023-02-01T03:12:23;97482.34;;;3.86;70.85
77855;BME280;67046;50.088;14.336;2023-02-01T03:13:57;97472.28;;;3.84;71.05
77855;BME280;67046;50.088;14.336;2023-02-01T03:14:33;97472.35;;;3.84;71.03
77855;BME280;67046;50.088;14.336;2023-02-01T03:15:10;97474.90;;;3.84;71.08
77855;BME280;67046;50.088;14.336;2023-02-01T03:16:01;97472.83;;;3.85;70.91
77855;BME280;67046;50.088;14.336;2023-02-01T03:16:48;97472.20;;;3.85;70.94
77855;BME280;67046;50.088;14.336;2023-02-01T03:17:31;97474.33;;;3.83;71.18
77855;BME280;67046;50.088;14.336;2023-02-01T03:18:13;97477.80;;;3.82;71.22
77855;BME280;67046;50.088;14.336;2023-02-01T03:19:28;97470.05;;;3.81;71.38
77855;BME280;67046;50.088;14.336;2023-02-01T03:20:02;97476.77;;;3.80;71.24
77855;BME280;67046;50.088;14.336;2023-02-01T03:20:36;97474.96;;;3.81;71.26
77855;BME280;67046;50.088;14.336;2023-02-01T03:21:16;97478.83;;;3.81;71.26
77855;BME280;67046;50.088;14.336;2023-02-01T03:21:54;97472.06;;;3.79;71.38
77855;BME280;67046;50.088;14.336;2023-02-01T03:22:28;97474.75;;;3.80;71.37
77855;BME280;67046;50.088;14.336;2023-02-01T03:23:05;97466.15;;;3.79;71.41
77855;BME280;67046;50.088;14.336;2023-02-01T03:23:38;97463.83;;;3.81;71.20
77855;BME280;67046;50.088;14.336;2023-02-01T03:24:46;97473.79;;;3.81;71.40
77855;BME280;67046;50.088;14.336;2023-02-01T03:25:29;97470.05;;;3.80;71.21
77855;BME280;67046;50.088;14.336;2023-02-01T03:26:04;97464.81;;;3.80;71.37
77855;BME280;67046;50.088;14.336;2023-02-01T03:26:41;97467.16;;;3.81;71.28
77855;BME280;67046;50.088;14.336;2023-02-01T03:27:30;97463.65;;;3.82;71.40
77855;BME280;67046;50.088;14.336;2023-02-01T03:28:07;97468.00;;;3.82;71.38
77855;BME280;67046;50.088;14.336;2023-02-01T03:28:47;97461.13;;;3.83;71.21
77855;BME280;67046;50.088;14.336;2023-02-01T03:29:26;97464.07;;;3.83;71.40
77855;BME280;67046;50.088;14.336;2023-02-01T03:30:38;97459.55;;;3.83;71.51
77855;BME280;67046;50.088;14.336;2023-02-01T03:31:13;97452.20;;;3.83;71.04
77855;BME280;67046;50.088;14.336;2023-02-01T03:31:45;97456.02;;;3.83;71.20
77855;BME280;67046;50.088;14.336;2023-02-01T03:32:18;97444.44;;;3.85;71.15
77855;BME280;67046;50.088;14.336;2023-02-01T03:32:52;97443.55;;;3.85;71.09
77855;BME280;67046;50.088;14.336;2023-02-01T03:33:32;97447.17;;;3.85;71.10